sensor_id;sensor_type;location;lat;lon;timestamp;P1;durP1;ratioP1;P2;durP2;ratioP2
68438;SDS011;55421;51.600;5.718;2022-11-27T00:01:26;11.30;;;4.90;;
68438;SDS011;55421;51.600;5.718;2022-11-27T00:03:54;14.40;;;5.00;;
68438;SDS011;55421;51.600;5.718;2022-11-27T00:06:24;13.60;;;4.50;;
68438;SDS011;55421;51.600;5.718;2022-11-27T00:08:55;8.80;;;4.40;;
68438;SDS011;55421;51.600;5.718;2022-11-27T00:11:25;13.20;;;4.60;;
68438;SDS011;55421;51.600;5.718;2022-11-27T00:13:53;12.80;;;5.40;;
68438;SDS011;55421;51.600;5.718;2022-11-27T00:16:23;13.50;;;5.70;;
68438;SDS011;55421;51.600;5.718;2022-11-27T00:18:51;15.30;;;5.70;;
68438;SDS011;55421;51.600;5.718;2022-11-27T00:21:23;13.10;;;5.60;;
68438;SDS011;55421;51.600;5.718;2022-11-27T00:23:53;12.40;;;4.70;;
68438;SDS011;55421;51.600;5.718;2022-11-27T00:26:21;18.60;;;5.50;;
68438;SDS011;55421;51.600;5.718;2022-11-27T00:28:49;12.40;;;5.60;;
68438;SDS011;55421;51.600;5.718;2022-11-27T00:31:24;14.00;;;5.70;;
68438;SDS011;55421;51.600;5.718;2022-11-27T00:33:55;16.20;;;5.80;;
68438;SDS011;55421;51.600;5.718;2022-11-27T00:36:31;15.00;;;6.50;;
68438;SDS011;55421;51.600;5.718;2022-11-27T00:38:59;15.10;;;5.70;;
68438;SDS011;55421;51.600;5.718;2022-11-27T00:41:27;11.00;;;5.40;;
68438;SDS011;55421;51.600;5.718;2022-11-27T00:43:55;11.00;;;5.20;;
68438;SDS011;55421;51.600;5.718;2022-11-27T00:46:24;15.70;;;5.10;;
68438;SDS011;55421;51.600;5.718;2022-11-27T00:48:53;8.80;;;5.20;;
68438;SDS011;55421;51.600;5.718;2022-11-27T00:51:21;14.40;;;5.60;;
68438;SDS011;55421;51.600;5.718;2022-11-27T00:53:48;14.00;;;5.90;;
68438;SDS011;55421;51.600;5.718;2022-11-27T00:56:18;14.90;;;6.30;;
68438;SDS011;55421;51.600;5.718;2022-11-27T00:58:46;14.00;;;5.40;;
68438;SDS011;55421;51.600;5.718;2022-11-27T01:01:18;9.50;;;4.40;;
68438;SDS011;55421;51.600;5.718;2022-11-27T01:03:49;10.40;;;4.10;;
68438;SDS011;55421;51.600;5.718;2022-11-27T01:06:18;16.30;;;4.90;;
68438;SDS011;55421;51.600;5.718;2022-11-27T01:08:45;9.80;;;4.50;;
68438;SDS011;55421;51.600;5.718;2022-11-27T01:11:25;10.00;;;5.20;;
68438;SDS011;55421;51.600;5.718;2022-11-27T01:13:58;11.50;;;5.20;;
68438;SDS011;55421;51.600;5.718;2022-11-27T01:16:28;19.50;;;5.30;;
68438;SDS011;55421;51.600;5.718;2022-11-27T01:18:57;11.50;;;4.90;;
68438;SDS011;55421;51.600;5.718;2022-11-27T01:21:26;11.40;;;4.50;;
68438;SDS011;55421;51.600;5.718;2022-11-27T01:23:54;10.90;;;4.90;;
68438;SDS011;55421;51.600;5.718;2022-11-27T01:26:21;27.00;;;5.80;;
68438;SDS011;55421;51.600;5.718;2022-11-27T01:28:51;11.50;;;5.30;;
68438;SDS011;55421;51.600;5.718;2022-11-27T01:33:53;13.80;;;5.40;;
68438;SDS011;55421;51.600;5.718;2022-11-27T01:36:22;13.70;;;5.30;;
68438;SDS011;55421;51.600;5.718;2022-11-27T01:38:49;18.80;;;5.00;;
68438;SDS011;55421;51.600;5.718;2022-11-27T01:41:21;11.80;;;4.50;;
68438;SDS011;55421;51.600;5.718;2022-11-27T01:44:00;11.60;;;4.90;;
68438;SDS011;55421;51.600;5.718;2022-11-27T01:46:48;14.70;;;5.40;;
68438;SDS011;55421;51.600;5.718;2022-11-27T01:49:23;11.60;;;5.50;;
68438;SDS011;55421;51.600;5.718;2022-11-27T01:51:59;9.40;;;4.90;;
68438;SDS011;55421;51.600;5.718;2022-11-27T01:54:34;9.70;;;4.70;;
68438;SDS011;55421;51.600;5.718;2022-11-27T01:57:11;10.10;;;5.10;;
68438;SDS011;55421;51.600;5.718;2022-11-27T01:59:41;10.60;;;4.60;;
68438;SDS011;55421;51.600;5.718;2022-11-27T02:02:08;11.70;;;5.00;;
68438;SDS011;55421;51.600;5.718;2022-11-27T02:04:35;14.20;;;5.20;;
68438;SDS011;55421;51.600;5.718;2022-11-27T02:07:02;10.60;;;4.90;;
68438;SDS011;55421;51.600;5.718;2022-11-27T02:09:29;13.20;;;4.40;;
68438;SDS011;55421;51.600;5.718;2022-11-27T02:12:20;12.10;;;4.40;;
68438;SDS011;55421;51.600;5.718;2022-11-27T02:18:05;15.90;;;5.10;;
68438;SDS011;55421;51.600;5.718;2022-11-27T02:20:56;12.70;;;4.70;;
68438;SDS011;55421;51.600;5.718;2022-11-27T02:23:52;9.60;;;4.90;;
68438;SDS011;55421;51.600;5.718;2022-11-27T02:26:42;10.60;;;3.80;;
68438;SDS011;55421;51.600;5.718;2022-11-27T02:29:34;14.60;;;3.90;;
68438;SDS011;55421;51.600;5.718;2022-11-27T02:32:24;10.60;;;4.50;;
68438;SDS011;55421;51.600;5.718;2022-11-27T02:35:05;8.90;;;4.40;;
68438;SDS011;55421;51.600;5.718;2022-11-27T02:38:04;11.60;;;4.90;;
68438;SDS011;55421;51.600;5.718;2022-11-27T02:40:47;8.70;;;3.50;;
68438;SDS011;55421;51.600;5.718;2022-11-27T02:43:24;12.00;;;4.00;;
68438;SDS011;55421;51.600;5.718;2022-11-27T02:45:56;13.50;;;3.60;;
68438;SDS011;55421;51.600;5.718;2022-11-27T02:48:30;12.30;;;4.70;;
68438;SDS011;55421;51.600;5.718;2022-11-27T02:51:02;9.40;;;3.90;;
68438;SDS011;55421;51.600;5.718;2022-11-27T02:53:35;11.30;;;3.90;;
68438;SDS011;55421;51.600;5.718;2022-11-27T02:56:18;12.20;;;3.00;;
68438;SDS011;55421;51.600;5.718;2022-11-27T02:58:47;10.10;;;3.20;;
68438;SDS011;55421;51.600;5.718;2022-11-27T03:01:17;8.60;;;3.30;;
68438;SDS011;55421;51.600;5.718;2022-11-27T03:03:51;14.90;;;3.70;;
68438;SDS011;55421;51.600;5.718;2022-11-27T03:06:27;13.60;;;3.90;;
68438;SDS011;55421;51.600;5.718;2022-11-27T03:09:47;6.40;;;3.60;;
68438;SDS011;55421;51.600;5.718;2022-11-27T03:12:06;14.00;;;3.40;;
68438;SDS011;55421;51.600;5.718;2022-11-27T03:14:35;9.30;;;3.10;;
68438;SDS011;55421;51.600;5.718;2022-11-27T03:17:15;9.00;;;3.00;;
68438;SDS011;55421;51.600;5.718;2022-11-27T03:20:02;7.40;;;2.80;;
68438;SDS011;55421;51.600;5.718;2022-11-27T03:22:37;13.80;;;3.40;;
68438;SDS011;55421;51.600;5.718;2022-11-27T03:25:04;11.10;;;3.10;;
68438;SDS011;55421;51.600;5.718;2022-11-27T03:27:36;9.40;;;3.30;;
68438;SDS011;55421;51.600;5.718;2022-11-27T03:30:11;7.80;;;2.90;;
68438;SDS011;55421;51.600;5.718;2022-11-27T03:32:39;9.00;;;3.10;;
68438;SDS011;55421;51.600;5.718;2022-11-27T03:35:08;9.80;;;3.30;;
68438;SDS011;55421;51.600;5.718;2022-11-27T03:37:38;12.90;;;3.10;;
68438;SDS011;55421;51.600;5.718;2022-11-27T03:40:07;9.90;;;3.30;;
68438;SDS011;55421;51.600;5.718;2022-11-27T03:43:01;9.50;;;2.80;;
68438;SDS011;55421;51.600;5.718;2022-11-27T03:45:49;5.40;;;2.60;;
68438;SDS011;55421;51.600;5.718;2022-11-27T03:48:35;9.80;;;2.80;;
68438;SDS011;55421;51.600;5.718;2022-11-27T03:51:20;8.80;;;2.20;;
68438;SDS011;55421;51.600;5.718;2022-11-27T03:57:13;7.00;;;2.50;;
68438;SDS011;55421;51.600;5.718;2022-11-27T04:02:15;11.10;;;2.60;;
68438;SDS011;55421;51.600;5.718;2022-11-27T04:04:53;9.40;;;2.50;;
68438;SDS011;55421;51.600;5.718;2022-11-27T04:07:20;4.10;;;2.50;;
68438;SDS011;55421;51.600;5.718;2022-11-27T04:09:47;8.20;;;2.50;;
68438;SDS011;55421;51.600;5.718;2022-11-27T04:12:13;6.70;;;2.20;;
68438;SDS011;55421;51.600;5.718;2022-11-27T04:14:40;7.00;;;2.70;;
68438;SDS011;55421;51.600;5.718;2022-11-27T04:17:07;10.20;;;2.70;;
68438;SDS011;55421;51.600;5.718;2022-11-27T04:19:33;9.60;;;3.20;;
68438;SDS011;55421;51.600;5.718;2022-11-27T04:22:00;10.10;;;3.10;;
68438;SDS011;55421;51.600;5.718;2022-11-27T04:24:26;7.80;;;2.90;;
68438;SDS011;55421;51.600;5.718;2022-11-27T04:26:53;9.30;;;2.80;;
68438;SDS011;55421;51.600;5.718;2022-11-27T04:29:19;7.30;;;3.00;;
68438;SDS011;55421;51.600;5.718;2022-11-27T04:31:46;6.30;;;2.60;;
68438;SDS011;55421;51.600;5.718;2022-11-27T04:34:12;8.50;;;2.30;;
68438;SDS011;55421;51.600;5.718;2022-11-27T04:36:39;8.50;;;2.50;;
68438;SDS011;55421;51.600;5.718;2022-11-27T04:39:06;9.50;;;2.70;;
68438;SDS011;55421;51.600;5.718;2022-11-27T04:41:32;6.40;;;2.70;;
68438;SDS011;55421;51.600;5.718;2022-11-27T04:43:59;9.70;;;2.80;;
68438;SDS011;55421;51.600;5.718;2022-11-27T04:46:25;6.90;;;2.70;;
68438;SDS011;55421;51.600;5.718;2022-11-27T04:48:52;11.30;;;3.00;;
68438;SDS011;55421;51.600;5.718;2022-11-27T04:51:18;6.90;;;2.60;;
68438;SDS011;55421;51.600;5.718;2022-11-27T04:53:45;9.50;;;2.40;;
68438;SDS011;55421;51.600;5.718;2022-11-27T04:56:11;8.30;;;2.60;;
68438;SDS011;55421;51.600;5.718;2022-11-27T04:58:38;10.70;;;2.80;;
68438;SDS011;55421;51.600;5.718;2022-11-27T05:01:07;6.40;;;2.80;;
68438;SDS011;55421;51.600;5.718;2022-11-27T05:03:34;10.60;;;3.70;;
68438;SDS011;55421;51.600;5.718;2022-11-27T05:06:01;12.80;;;3.40;;
68438;SDS011;55421;51.600;5.718;2022-11-27T05:08:29;9.90;;;3.50;;
68438;SDS011;55421;51.600;5.718;2022-11-27T05:11:09;4.70;;;2.60;;
68438;SDS011;55421;51.600;5.718;2022-11-27T05:13:38;7.70;;;3.20;;
68438;SDS011;55421;51.600;5.718;2022-11-27T05:16:06;6.70;;;2.60;;
68438;SDS011;55421;51.600;5.718;2022-11-27T05:18:33;8.60;;;2.80;;
68438;SDS011;55421;51.600;5.718;2022-11-27T05:21:05;6.20;;;3.00;;
68438;SDS011;55421;51.600;5.718;2022-11-27T05:23:33;8.40;;;3.10;;
68438;SDS011;55421;51.600;5.718;2022-11-27T05:25:59;10.60;;;3.40;;
68438;SDS011;55421;51.600;5.718;2022-11-27T05:28:26;7.80;;;2.90;;
68438;SDS011;55421;51.600;5.718;2022-11-27T05:30:53;8.50;;;3.10;;
68438;SDS011;55421;51.600;5.718;2022-11-27T05:33:19;11.10;;;3.00;;
68438;SDS011;55421;51.600;5.718;2022-11-27T05:35:46;7.10;;;3.20;;
68438;SDS011;55421;51.600;5.718;2022-11-27T05:38:13;10.80;;;3.70;;
68438;SDS011;55421;51.600;5.718;2022-11-27T05:40:39;13.10;;;3.90;;
68438;SDS011;55421;51.600;5.718;2022-11-27T05:43:06;9.10;;;3.70;;
68438;SDS011;55421;51.600;5.718;2022-11-27T05:45:32;9.50;;;3.30;;
68438;SDS011;55421;51.600;5.718;2022-11-27T05:47:59;15.10;;;3.60;;
68438;SDS011;55421;51.600;5.718;2022-11-27T05:50:25;6.40;;;3.10;;
68438;SDS011;55421;51.600;5.718;2022-11-27T05:52:51;6.70;;;3.10;;
68438;SDS011;55421;51.600;5.718;2022-11-27T05:55:18;7.30;;;3.30;;
68438;SDS011;55421;51.600;5.718;2022-11-27T05:57:44;9.50;;;3.60;;
68438;SDS011;55421;51.600;5.718;2022-11-27T06:00:11;9.10;;;4.30;;
68438;SDS011;55421;51.600;5.718;2022-11-27T06:02:39;8.70;;;3.70;;
68438;SDS011;55421;51.600;5.718;2022-11-27T06:05:06;8.90;;;3.40;;
68438;SDS011;55421;51.600;5.718;2022-11-27T06:07:33;9.30;;;3.50;;
68438;SDS011;55421;51.600;5.718;2022-11-27T06:09:59;6.70;;;3.40;;
68438;SDS011;55421;51.600;5.718;2022-11-27T06:12:26;7.30;;;3.50;;
68438;SDS011;55421;51.600;5.718;2022-11-27T06:14:52;7.40;;;4.40;;
68438;SDS011;55421;51.600;5.718;2022-11-27T06:17:19;12.70;;;4.30;;
68438;SDS011;55421;51.600;5.718;2022-11-27T06:19:45;9.10;;;4.00;;
68438;SDS011;55421;51.600;5.718;2022-11-27T06:22:12;10.40;;;5.10;;
68438;SDS011;55421;51.600;5.718;2022-11-27T06:24:38;9.20;;;3.70;;
68438;SDS011;55421;51.600;5.718;2022-11-27T06:27:05;10.60;;;4.00;;
68438;SDS011;55421;51.600;5.718;2022-11-27T06:29:31;9.30;;;3.60;;
68438;SDS011;55421;51.600;5.718;2022-11-27T06:31:59;10.00;;;4.30;;
68438;SDS011;55421;51.600;5.718;2022-11-27T06:34:27;13.70;;;5.50;;
68438;SDS011;55421;51.600;5.718;2022-11-27T06:36:54;9.70;;;4.60;;
68438;SDS011;55421;51.600;5.718;2022-11-27T06:39:20;10.20;;;4.60;;
68438;SDS011;55421;51.600;5.718;2022-11-27T06:41:47;10.50;;;4.70;;
68438;SDS011;55421;51.600;5.718;2022-11-27T06:44:13;9.90;;;4.50;;
68438;SDS011;55421;51.600;5.718;2022-11-27T06:46:39;13.10;;;4.30;;
68438;SDS011;55421;51.600;5.718;2022-11-27T06:49:06;9.80;;;4.10;;
68438;SDS011;55421;51.600;5.718;2022-11-27T06:51:33;9.10;;;3.60;;
68438;SDS011;55421;51.600;5.718;2022-11-27T06:54:00;10.50;;;4.90;;
68438;SDS011;55421;51.600;5.718;2022-11-27T06:56:29;9.30;;;5.00;;
68438;SDS011;55421;51.600;5.718;2022-11-27T06:58:58;10.70;;;4.80;;
68438;SDS011;55421;51.600;5.718;2022-11-27T07:01:27;9.00;;;4.60;;
68438;SDS011;55421;51.600;5.718;2022-11-27T07:03:56;9.70;;;4.50;;
68438;SDS011;55421;51.600;5.718;2022-11-27T07:06:24;7.20;;;3.90;;
68438;SDS011;55421;51.600;5.718;2022-11-27T07:08:52;8.40;;;4.60;;
68438;SDS011;55421;51.600;5.718;2022-11-27T07:11:25;14.00;;;4.60;;
68438;SDS011;55421;51.600;5.718;2022-11-27T07:13:54;10.80;;;4.70;;
68438;SDS011;55421;51.600;5.718;2022-11-27T07:16:23;8.80;;;4.60;;
68438;SDS011;55421;51.600;5.718;2022-11-27T07:18:56;8.30;;;4.70;;
68438;SDS011;55421;51.600;5.718;2022-11-27T07:21:25;9.90;;;5.00;;
68438;SDS011;55421;51.600;5.718;2022-11-27T07:23:53;12.50;;;5.10;;
68438;SDS011;55421;51.600;5.718;2022-11-27T07:26:24;10.20;;;4.90;;
68438;SDS011;55421;51.600;5.718;2022-11-27T07:31:22;7.50;;;4.00;;
68438;SDS011;55421;51.600;5.718;2022-11-27T07:33:51;12.00;;;4.60;;
68438;SDS011;55421;51.600;5.718;2022-11-27T07:36:21;10.80;;;4.90;;
68438;SDS011;55421;51.600;5.718;2022-11-27T07:38:53;9.90;;;5.00;;
68438;SDS011;55421;51.600;5.718;2022-11-27T07:41:20;10.70;;;4.90;;
68438;SDS011;55421;51.600;5.718;2022-11-27T07:43:47;10.40;;;5.40;;
68438;SDS011;55421;51.600;5.718;2022-11-27T07:46:19;11.80;;;5.00;;
68438;SDS011;55421;51.600;5.718;2022-11-27T07:48:48;9.80;;;4.80;;
68438;SDS011;55421;51.600;5.718;2022-11-27T07:51:17;8.50;;;4.40;;
68438;SDS011;55421;51.600;5.718;2022-11-27T07:53:45;9.40;;;4.20;;
68438;SDS011;55421;51.600;5.718;2022-11-27T07:56:14;9.30;;;5.30;;
68438;SDS011;55421;51.600;5.718;2022-11-27T07:58:41;10.50;;;5.10;;
68438;SDS011;55421;51.600;5.718;2022-11-27T08:01:09;11.40;;;5.10;;
68438;SDS011;55421;51.600;5.718;2022-11-27T08:03:41;10.90;;;5.40;;
68438;SDS011;55421;51.600;5.718;2022-11-27T08:06:21;11.70;;;5.50;;
68438;SDS011;55421;51.600;5.718;2022-11-27T08:08:50;10.20;;;5.30;;
68438;SDS011;55421;51.600;5.718;2022-11-27T08:11:27;9.70;;;4.70;;
68438;SDS011;55421;51.600;5.718;2022-11-27T08:14:06;12.20;;;4.60;;
68438;SDS011;55421;51.600;5.718;2022-11-27T08:16:34;10.00;;;4.50;;
68438;SDS011;55421;51.600;5.718;2022-11-27T08:19:01;12.50;;;5.20;;
68438;SDS011;55421;51.600;5.718;2022-11-27T08:21:34;11.10;;;5.80;;
68438;SDS011;55421;51.600;5.718;2022-11-27T08:24:07;13.70;;;6.00;;
68438;SDS011;55421;51.600;5.718;2022-11-27T08:26:34;10.00;;;4.80;;
68438;SDS011;55421;51.600;5.718;2022-11-27T08:29:01;9.90;;;4.90;;
68438;SDS011;55421;51.600;5.718;2022-11-27T08:31:28;9.80;;;4.80;;
68438;SDS011;55421;51.600;5.718;2022-11-27T08:33:54;14.00;;;6.60;;
68438;SDS011;55421;51.600;5.718;2022-11-27T08:36:30;13.80;;;5.90;;
68438;SDS011;55421;51.600;5.718;2022-11-27T08:38:56;11.20;;;5.00;;
68438;SDS011;55421;51.600;5.718;2022-11-27T08:41:23;9.50;;;4.70;;
68438;SDS011;55421;51.600;5.718;2022-11-27T08:43:50;9.80;;;4.70;;
68438;SDS011;55421;51.600;5.718;2022-11-27T08:46:17;11.10;;;4.80;;
68438;SDS011;55421;51.600;5.718;2022-11-27T08:48:43;8.60;;;4.20;;
68438;SDS011;55421;51.600;5.718;2022-11-27T08:51:12;8.30;;;4.90;;
68438;SDS011;55421;51.600;5.718;2022-11-27T08:53:42;11.20;;;5.80;;
68438;SDS011;55421;51.600;5.718;2022-11-27T08:56:17;10.00;;;5.10;;
68438;SDS011;55421;51.600;5.718;2022-11-27T08:58:45;14.00;;;6.00;;
68438;SDS011;55421;51.600;5.718;2022-11-27T09:01:38;11.80;;;5.40;;
68438;SDS011;55421;51.600;5.718;2022-11-27T09:04:08;9.50;;;4.40;;
68438;SDS011;55421;51.600;5.718;2022-11-27T09:06:34;11.20;;;4.80;;
68438;SDS011;55421;51.600;5.718;2022-11-27T09:09:04;8.20;;;4.70;;
68438;SDS011;55421;51.600;5.718;2022-11-27T09:11:31;11.30;;;4.80;;
68438;SDS011;55421;51.600;5.718;2022-11-27T09:14:00;10.40;;;5.40;;
68438;SDS011;55421;51.600;5.718;2022-11-27T09:16:28;8.40;;;4.30;;
68438;SDS011;55421;51.600;5.718;2022-11-27T09:18:56;11.20;;;4.30;;
68438;SDS011;55421;51.600;5.718;2022-11-27T09:21:27;9.90;;;4.30;;
68438;SDS011;55421;51.600;5.718;2022-11-27T09:23:59;11.80;;;5.10;;
68438;SDS011;55421;51.600;5.718;2022-11-27T09:26:28;11.40;;;5.10;;
68438;SDS011;55421;51.600;5.718;2022-11-27T09:28:57;10.70;;;5.00;;
68438;SDS011;55421;51.600;5.718;2022-11-27T09:31:24;12.70;;;5.90;;
68438;SDS011;55421;51.600;5.718;2022-11-27T09:33:52;11.40;;;4.60;;
68438;SDS011;55421;51.600;5.718;2022-11-27T09:36:22;13.20;;;4.80;;
68438;SDS011;55421;51.600;5.718;2022-11-27T09:38:51;9.80;;;4.20;;
68438;SDS011;55421;51.600;5.718;2022-11-27T09:41:34;9.20;;;4.50;;
68438;SDS011;55421;51.600;5.718;2022-11-27T09:47:22;11.30;;;5.60;;
68438;SDS011;55421;51.600;5.718;2022-11-27T09:50:14;12.30;;;4.90;;
68438;SDS011;55421;51.600;5.718;2022-11-27T09:55:57;13.10;;;5.30;;
68438;SDS011;55421;51.600;5.718;2022-11-27T09:58:38;11.10;;;5.30;;
68438;SDS011;55421;51.600;5.718;2022-11-27T10:01:14;11.60;;;5.50;;
68438;SDS011;55421;51.600;5.718;2022-11-27T10:03:46;11.80;;;5.60;;
68438;SDS011;55421;51.600;5.718;2022-11-27T10:06:24;9.80;;;5.40;;
68438;SDS011;55421;51.600;5.718;2022-11-27T10:09:06;11.20;;;5.60;;
68438;SDS011;55421;51.600;5.718;2022-11-27T10:11:55;10.30;;;5.50;;
68438;SDS011;55421;51.600;5.718;2022-11-27T10:14:58;10.20;;;5.00;;
68438;SDS011;55421;51.600;5.718;2022-11-27T10:17:57;10.40;;;5.00;;
68438;SDS011;55421;51.600;5.718;2022-11-27T10:20:38;11.20;;;5.50;;
68438;SDS011;55421;51.600;5.718;2022-11-27T10:23:43;13.90;;;5.60;;
68438;SDS011;55421;51.600;5.718;2022-11-27T10:29:38;9.90;;;5.00;;
68438;SDS011;55421;51.600;5.718;2022-11-27T10:32:15;7.90;;;4.40;;
68438;SDS011;55421;51.600;5.718;2022-11-27T10:34:48;9.40;;;5.00;;
68438;SDS011;55421;51.600;5.718;2022-11-27T10:37:25;11.00;;;5.50;;
68438;SDS011;55421;51.600;5.718;2022-11-27T10:40:02;10.10;;;5.70;;
68438;SDS011;55421;51.600;5.718;2022-11-27T10:48:20;9.40;;;4.70;;
68438;SDS011;55421;51.600;5.718;2022-11-27T10:50:48;9.10;;;5.10;;
68438;SDS011;55421;51.600;5.718;2022-11-27T10:59:02;14.00;;;5.80;;
68438;SDS011;55421;51.600;5.718;2022-11-27T11:01:43;10.50;;;5.80;;
68438;SDS011;55421;51.600;5.718;2022-11-27T11:04:20;10.20;;;5.20;;
68438;SDS011;55421;51.600;5.718;2022-11-27T11:06:48;11.50;;;5.00;;
68438;SDS011;55421;51.600;5.718;2022-11-27T11:09:22;11.30;;;5.50;;
68438;SDS011;55421;51.600;5.718;2022-11-27T11:11:50;10.90;;;6.00;;
68438;SDS011;55421;51.600;5.718;2022-11-27T11:14:19;8.40;;;5.50;;
68438;SDS011;55421;51.600;5.718;2022-11-27T11:16:53;11.50;;;5.30;;
68438;SDS011;55421;51.600;5.718;2022-11-27T11:19:34;13.50;;;5.50;;
68438;SDS011;55421;51.600;5.718;2022-11-27T11:22:09;11.10;;;4.80;;
68438;SDS011;55421;51.600;5.718;2022-11-27T11:24:39;13.50;;;6.10;;
68438;SDS011;55421;51.600;5.718;2022-11-27T11:27:20;9.50;;;5.40;;
68438;SDS011;55421;51.600;5.718;2022-11-27T11:32:31;11.90;;;6.20;;
68438;SDS011;55421;51.600;5.718;2022-11-27T11:35:09;10.60;;;6.00;;
68438;SDS011;55421;51.600;5.718;2022-11-27T11:37:50;9.70;;;5.60;;
68438;SDS011;55421;51.600;5.718;2022-11-27T11:40:21;10.90;;;5.50;;
68438;SDS011;55421;51.600;5.718;2022-11-27T11:42:59;13.30;;;5.60;;
68438;SDS011;55421;51.600;5.718;2022-11-27T11:45:29;10.70;;;5.60;;
68438;SDS011;55421;51.600;5.718;2022-11-27T11:48:02;13.00;;;6.30;;
68438;SDS011;55421;51.600;5.718;2022-11-27T11:50:52;15.00;;;6.30;;
68438;SDS011;55421;51.600;5.718;2022-11-27T11:56:34;10.00;;;5.40;;
68438;SDS011;55421;51.600;5.718;2022-11-27T12:02:19;11.30;;;5.70;;
68438;SDS011;55421;51.600;5.718;2022-11-27T12:08:20;14.00;;;6.40;;
68438;SDS011;55421;51.600;5.718;2022-11-27T12:11:14;10.90;;;5.40;;
68438;SDS011;55421;51.600;5.718;2022-11-27T12:25:37;9.10;;;5.10;;
68438;SDS011;55421;51.600;5.718;2022-11-27T12:28:31;8.60;;;5.50;;
68438;SDS011;55421;51.600;5.718;2022-11-27T12:34:27;9.10;;;5.20;;
68438;SDS011;55421;51.600;5.718;2022-11-27T12:37:17;8.80;;;5.20;;
68438;SDS011;55421;51.600;5.718;2022-11-27T12:43:02;7.90;;;4.70;;
68438;SDS011;55421;51.600;5.718;2022-11-27T12:45:45;9.70;;;4.90;;
68438;SDS011;55421;51.600;5.718;2022-11-27T12:48:30;12.00;;;5.60;;
68438;SDS011;55421;51.600;5.718;2022-11-27T12:51:06;9.30;;;5.90;;
68438;SDS011;55421;51.600;5.718;2022-11-27T12:53:49;11.20;;;5.50;;
68438;SDS011;55421;51.600;5.718;2022-11-27T12:56:32;7.80;;;4.50;;
68438;SDS011;55421;51.600;5.718;2022-11-27T12:59:15;8.40;;;5.10;;
68438;SDS011;55421;51.600;5.718;2022-11-27T13:02:06;8.80;;;5.20;;
68438;SDS011;55421;51.600;5.718;2022-11-27T13:07:29;10.60;;;5.50;;
68438;SDS011;55421;51.600;5.718;2022-11-27T13:10:33;8.50;;;4.60;;
68438;SDS011;55421;51.600;5.718;2022-11-27T13:13:08;8.80;;;4.50;;
68438;SDS011;55421;51.600;5.718;2022-11-27T13:18:24;7.70;;;4.70;;
68438;SDS011;55421;51.600;5.718;2022-11-27T13:21:12;8.10;;;5.40;;
68438;SDS011;55421;51.600;5.718;2022-11-27T13:23:41;8.60;;;4.80;;
68438;SDS011;55421;51.600;5.718;2022-11-27T13:26:30;6.70;;;4.60;;
68438;SDS011;55421;51.600;5.718;2022-11-27T13:29:16;11.10;;;5.20;;
68438;SDS011;55421;51.600;5.718;2022-11-27T13:31:55;7.90;;;4.20;;
68438;SDS011;55421;51.600;5.718;2022-11-27T13:34:26;11.40;;;5.30;;
68438;SDS011;55421;51.600;5.718;2022-11-27T13:37:01;9.10;;;5.60;;
68438;SDS011;55421;51.600;5.718;2022-11-27T13:39:34;10.50;;;6.10;;
68438;SDS011;55421;51.600;5.718;2022-11-27T13:44:40;7.30;;;4.40;;
68438;SDS011;55421;51.600;5.718;2022-11-27T13:47:13;10.60;;;5.40;;
68438;SDS011;55421;51.600;5.718;2022-11-27T13:49:42;9.00;;;5.00;;
68438;SDS011;55421;51.600;5.718;2022-11-27T13:52:13;11.10;;;5.50;;
68438;SDS011;55421;51.600;5.718;2022-11-27T13:55:06;10.60;;;5.90;;
68438;SDS011;55421;51.600;5.718;2022-11-27T13:57:35;12.70;;;6.30;;
68438;SDS011;55421;51.600;5.718;2022-11-27T14:00:08;9.00;;;4.80;;
68438;SDS011;55421;51.600;5.718;2022-11-27T14:02:47;8.70;;;5.30;;
68438;SDS011;55421;51.600;5.718;2022-11-27T14:05:18;7.60;;;4.80;;
68438;SDS011;55421;51.600;5.718;2022-11-27T14:10:24;9.40;;;5.40;;
68438;SDS011;55421;51.600;5.718;2022-11-27T14:15:34;9.00;;;4.80;;
68438;SDS011;55421;51.600;5.718;2022-11-27T14:18:14;9.60;;;4.90;;
68438;SDS011;55421;51.600;5.718;2022-11-27T14:23:33;9.10;;;4.90;;
68438;SDS011;55421;51.600;5.718;2022-11-27T14:28:40;14.30;;;5.70;;
68438;SDS011;55421;51.600;5.718;2022-11-27T14:31:24;17.40;;;7.00;;
68438;SDS011;55421;51.600;5.718;2022-11-27T14:33:53;10.80;;;6.20;;
68438;SDS011;55421;51.600;5.718;2022-11-27T14:36:26;10.10;;;6.00;;
68438;SDS011;55421;51.600;5.718;2022-11-27T14:38:56;12.10;;;5.60;;
68438;SDS011;55421;51.600;5.718;2022-11-27T14:41:25;8.00;;;5.00;;
68438;SDS011;55421;51.600;5.718;2022-11-27T14:43:59;10.70;;;5.60;;
68438;SDS011;55421;51.600;5.718;2022-11-27T14:46:27;10.70;;;5.10;;
68438;SDS011;55421;51.600;5.718;2022-11-27T14:48:56;10.00;;;5.60;;
68438;SDS011;55421;51.600;5.718;2022-11-27T14:51:31;10.10;;;5.40;;
68438;SDS011;55421;51.600;5.718;2022-11-27T14:54:10;7.70;;;4.80;;
68438;SDS011;55421;51.600;5.718;2022-11-27T14:56:40;6.30;;;4.40;;
68438;SDS011;55421;51.600;5.718;2022-11-27T14:59:16;7.00;;;4.10;;
68438;SDS011;55421;51.600;5.718;2022-11-27T15:02:02;7.10;;;4.40;;
68438;SDS011;55421;51.600;5.718;2022-11-27T15:04:39;7.70;;;4.90;;
68438;SDS011;55421;51.600;5.718;2022-11-27T15:07:15;7.60;;;5.00;;
68438;SDS011;55421;51.600;5.718;2022-11-27T15:09:46;9.80;;;4.70;;
68438;SDS011;55421;51.600;5.718;2022-11-27T15:12:28;6.80;;;4.20;;
68438;SDS011;55421;51.600;5.718;2022-11-27T15:15:00;6.50;;;4.00;;
68438;SDS011;55421;51.600;5.718;2022-11-27T15:17:32;6.40;;;4.10;;
68438;SDS011;55421;51.600;5.718;2022-11-27T15:20:12;8.60;;;4.00;;
68438;SDS011;55421;51.600;5.718;2022-11-27T15:22:52;7.90;;;4.60;;
68438;SDS011;55421;51.600;5.718;2022-11-27T15:25:38;8.20;;;4.00;;
68438;SDS011;55421;51.600;5.718;2022-11-27T15:30:49;6.80;;;3.90;;
68438;SDS011;55421;51.600;5.718;2022-11-27T15:33:30;6.50;;;4.10;;
68438;SDS011;55421;51.600;5.718;2022-11-27T15:36:33;8.10;;;4.10;;
68438;SDS011;55421;51.600;5.718;2022-11-27T15:39:10;7.40;;;3.90;;
68438;SDS011;55421;51.600;5.718;2022-11-27T15:41:55;6.00;;;3.50;;
68438;SDS011;55421;51.600;5.718;2022-11-27T15:44:24;7.50;;;3.90;;
68438;SDS011;55421;51.600;5.718;2022-11-27T15:46:53;9.40;;;4.40;;
68438;SDS011;55421;51.600;5.718;2022-11-27T15:49:22;4.40;;;3.40;;
68438;SDS011;55421;51.600;5.718;2022-11-27T15:51:51;6.60;;;4.20;;
68438;SDS011;55421;51.600;5.718;2022-11-27T15:54:17;7.40;;;4.30;;
68438;SDS011;55421;51.600;5.718;2022-11-27T15:56:44;5.60;;;3.80;;
68438;SDS011;55421;51.600;5.718;2022-11-27T15:59:12;5.60;;;3.50;;
68438;SDS011;55421;51.600;5.718;2022-11-27T16:01:40;5.20;;;3.40;;
68438;SDS011;55421;51.600;5.718;2022-11-27T16:04:06;5.50;;;3.90;;
68438;SDS011;55421;51.600;5.718;2022-11-27T16:06:36;6.20;;;3.70;;
68438;SDS011;55421;51.600;5.718;2022-11-27T16:09:04;5.60;;;4.00;;
68438;SDS011;55421;51.600;5.718;2022-11-27T16:11:31;6.30;;;4.10;;
68438;SDS011;55421;51.600;5.718;2022-11-27T16:13:58;6.60;;;4.30;;
68438;SDS011;55421;51.600;5.718;2022-11-27T16:16:24;5.50;;;3.80;;
68438;SDS011;55421;51.600;5.718;2022-11-27T16:18:55;7.70;;;3.80;;
68438;SDS011;55421;51.600;5.718;2022-11-27T16:21:22;8.10;;;4.00;;
68438;SDS011;55421;51.600;5.718;2022-11-27T16:23:49;6.30;;;3.60;;
68438;SDS011;55421;51.600;5.718;2022-11-27T16:26:15;7.40;;;3.20;;
68438;SDS011;55421;51.600;5.718;2022-11-27T16:28:42;7.10;;;3.50;;
68438;SDS011;55421;51.600;5.718;2022-11-27T16:31:11;5.70;;;3.50;;
68438;SDS011;55421;51.600;5.718;2022-11-27T16:33:38;5.20;;;3.50;;
68438;SDS011;55421;51.600;5.718;2022-11-27T16:36:07;6.90;;;3.60;;
68438;SDS011;55421;51.600;5.718;2022-11-27T16:38:37;5.60;;;3.60;;
68438;SDS011;55421;51.600;5.718;2022-11-27T16:41:06;7.90;;;3.90;;